Time;durP1;ratioP1;P1;durP2;ratioP2;P2;SDS_P1;SDS_P2;PMS_P1;PMS_P2;Temp;Humidity;BMP_temperature;BMP_pressure;BME280_temperature;BME280_humidity;BME280_pressure;Samples;Min_cycle;Max_cycle;Signal;HPM_P1;HPM_P2
2022/08/01 00:03:10;;;;;;;6.32;5.72;;;28.80;52.30;;;;;;4756959;57;21035;-32
2022/08/01 00:08:11;;;;;;;5.97;5.43;;;28.80;52.10;;;;;;4993933;57;21074;-36
2022/08/01 00:13:11;;;;;;;5.90;5.40;;;28.80;52.20;;;;;;4932028;57;21532;-32
2022/08/01 00:18:12;;;;;;;6.45;5.85;;;28.80;52.40;;;;;;4824844;57;21113;-31
2022/08/01 00:23:13;;;;;;;5.70;5.20;;;28.80;52.20;;;;;;4575546;57;21074;-30
2022/08/01 00:28:14;;;;;;;5.78;5.18;;;28.80;51.80;;;;;;4682373;57;21540;-30
2022/08/01 00:33:15;;;;;;;5.70;5.20;;;28.80;52.50;;;;;;4744211;57;21500;-30
2022/08/01 00:38:15;;;;;;;6.18;5.00;;;28.80;52.00;;;;;;4656718;57;21030;-34
2022/08/01 00:43:16;;;;;;;5.00;4.60;;;28.80;52.40;;;;;;4562442;61;21512;-31
2022/08/01 00:48:17;;;;;;;5.20;4.78;;;28.80;52.50;;;;;;4812371;57;21030;-31
2022/08/01 00:53:18;;;;;;;5.18;4.78;;;28.80;52.40;;;;;;4846504;57;21038;-29
2022/08/01 00:58:19;;;;;;;5.95;5.30;;;28.80;52.00;;;;;;4562700;61;21487;-30
2022/08/01 01:03:23;;;;;;;5.30;4.80;;;28.80;52.30;;;;;;4576471;57;21540;-30
2022/08/01 01:08:30;;;;;;;5.03;4.62;;;28.80;52.10;;;;;;4562613;61;21025;-29
2022/08/01 01:13:49;;;;;;;5.60;5.05;;;28.70;51.90;;;;;;4562854;61;21162;-30
2022/08/01 01:18:54;;;;;;;4.80;4.40;;;28.80;52.20;;;;;;4925626;57;21010;-31
2022/08/01 01:25:44;;;;;;;5.22;4.82;;;28.80;52.50;;;;;;4629887;57;21046;-29
2022/08/01 01:30:48;;;;;;;5.03;4.60;;;28.70;52.00;;;;;;4727182;57;21038;-32
2022/08/01 01:35:57;;;;;;;5.40;4.90;;;28.70;51.90;;;;;;4638009;57;21122;-30
2022/08/01 01:41:00;;;;;;;4.70;4.30;;;28.70;51.90;;;;;;5009728;57;21019;-29
2022/08/01 01:46:03;;;;;;;5.60;5.00;;;28.70;52.10;;;;;;5009650;57;21046;-29
2022/08/01 01:51:04;;;;;;;4.97;4.57;;;28.80;52.20;;;;;;4814618;57;21038;-32
2022/08/01 01:56:06;;;;;;;4.82;4.43;;;28.70;52.40;;;;;;4630191;57;21066;-30
2022/08/01 02:01:08;;;;;;;5.28;4.87;;;28.70;52.30;;;;;;4562885;61;21030;-29
2022/08/01 02:06:11;;;;;;;4.85;4.45;;;28.70;52.30;;;;;;5009584;57;21511;-31
2022/08/01 02:11:18;;;;;;;4.50;4.10;;;28.70;51.80;;;;;;4828017;57;21022;-30
2022/08/01 02:16:22;;;;;;;4.90;4.45;;;28.70;52.00;;;;;;4847723;57;21614;-30
2022/08/01 02:24:08;;;;;;;4.90;4.50;;;28.70;52.00;;;;;;4980147;57;21137;-32
2022/08/01 02:29:13;;;;;;;4.40;4.07;;;28.70;52.00;;;;;;4731732;57;21488;-30
2022/08/01 02:34:18;;;;;;;4.62;4.22;;;28.70;52.00;;;;;;4721589;57;21081;-30
2022/08/01 02:39:21;;;;;;;4.12;3.83;;;28.70;53.00;;;;;;4845444;57;21101;-30
2022/08/01 02:44:26;;;;;;;4.60;4.20;;;28.70;52.00;;;;;;4768951;57;21014;-31
2022/08/01 02:49:31;;;;;;;4.70;4.30;;;28.70;52.20;;;;;;5000010;57;21026;-31
2022/08/01 02:54:33;;;;;;;4.53;4.22;;;28.70;52.10;;;;;;4844305;57;21544;-30
2022/08/01 02:59:37;;;;;;;4.90;4.40;;;28.70;52.30;;;;;;4562439;61;21014;-29
2022/08/01 03:04:40;;;;;;;4.30;4.00;;;28.70;51.90;;;;;;4669502;57;21607;-29
2022/08/01 03:09:45;;;;;;;4.75;4.35;;;28.70;52.40;;;;;;4562530;61;21098;-32
2022/08/01 03:14:49;;;;;;;4.75;4.25;;;28.70;52.60;;;;;;4562224;61;21062;-30
2022/08/01 03:19:52;;;;;;;4.65;4.22;;;28.70;52.40;;;;;;4660271;57;21071;-32
2022/08/01 03:24:54;;;;;;;4.40;4.00;;;28.70;52.60;;;;;;4708015;57;21034;-30
2022/08/01 03:29:58;;;;;;;4.05;3.75;;;28.70;52.20;;;;;;4645854;57;21568;-31
2022/08/01 03:34:59;;;;;;;4.80;4.10;;;28.70;52.40;;;;;;4641025;57;21102;-30
2022/08/01 03:40:07;;;;;;;4.50;4.12;;;28.60;52.30;;;;;;4799118;57;21026;-31
2022/08/01 03:45:13;;;;;;;4.40;4.00;;;28.70;52.20;;;;;;4562202;61;21106;-30
2022/08/01 03:50:16;;;;;;;4.47;4.07;;;28.60;51.90;;;;;;4562696;61;21054;-30
2022/08/01 03:55:19;;;;;;;4.50;4.20;;;28.60;52.10;;;;;;4672117;57;21496;-30
2022/08/01 04:00:20;;;;;;;4.50;4.10;;;28.60;51.80;;;;;;5009473;57;21087;-30
2022/08/01 04:05:21;;;;;;;4.20;3.90;;;28.60;51.90;;;;;;4719741;57;21042;-32
2022/08/01 04:10:23;;;;;;;4.62;4.22;;;28.60;51.70;;;;;;4757620;57;21021;-30
2022/08/01 04:15:24;;;;;;;4.10;3.80;;;28.60;51.60;;;;;;4646151;57;21014;-30
2022/08/01 04:20:25;;;;;;;4.40;4.00;;;28.60;51.40;;;;;;4668883;57;21510;-32
2022/08/01 04:25:31;;;;;;;4.05;3.65;;;28.60;51.40;;;;;;4612604;57;21106;-33
2022/08/01 04:30:34;;;;;;;;;;;28.60;51.20;;;;;;4565883;61;21817;-32
2022/08/01 04:35:38;;;;;;;3.92;3.62;;;28.60;51.40;;;;;;4610863;57;20064;-30
2022/08/01 04:40:41;;;;;;;4.40;4.00;;;28.60;51.20;;;;;;4562535;61;21030;-28
2022/08/01 04:45:43;;;;;;;4.30;3.90;;;28.60;51.20;;;;;;4961866;57;21046;-31
2022/08/01 04:50:44;;;;;;;5.70;3.70;;;28.60;51.10;;;;;;4562526;61;21503;-30
2022/08/01 04:55:46;;;;;;;3.90;3.60;;;28.50;51.00;;;;;;4649621;57;21026;-33
2022/08/01 05:00:47;;;;;;;4.22;3.80;;;28.60;51.00;;;;;;4562206;61;21037;-29
2022/08/01 05:05:47;;;;;;;4.22;3.83;;;28.60;50.90;;;;;;4923570;57;21107;-28
2022/08/01 05:10:48;;;;;;;4.00;3.70;;;28.50;50.90;;;;;;4830494;57;21166;-31
2022/08/01 05:15:50;;;;;;;5.25;3.80;;;28.50;50.60;;;;;;4656876;57;21101;-30
2022/08/01 05:20:51;;;;;;;3.70;3.40;;;28.50;50.40;;;;;;4656509;57;21492;-31
2022/08/01 05:25:52;;;;;;;3.90;3.60;;;28.50;50.70;;;;;;4571917;57;21532;-30
2022/08/01 05:30:54;;;;;;;4.07;3.78;;;28.50;50.80;;;;;;4687836;57;21033;-33
2022/08/01 05:35:55;;;;;;;3.83;3.53;;;28.50;50.70;;;;;;4715026;57;21584;-33
2022/08/01 05:40:56;;;;;;;7.93;4.30;;;28.50;50.70;;;;;;4673494;57;21026;-29
2022/08/01 05:45:58;;;;;;;4.25;3.85;;;28.50;50.50;;;;;;4561819;61;21053;-29
2022/08/01 05:50:59;;;;;;;4.68;4.18;;;28.50;50.70;;;;;;4922536;57;21492;-32
2022/08/01 05:56:01;;;;;;;5.22;4.40;;;28.50;50.40;;;;;;4769811;57;21022;-32
2022/08/01 06:01:02;;;;;;;4.53;4.10;;;28.50;50.20;;;;;;4562414;57;21548;-30
2022/08/01 06:06:04;;;;;;;9.15;5.35;;;28.50;50.30;;;;;;4662063;57;21118;-30
2022/08/01 06:11:05;;;;;;;7.03;5.62;;;28.30;49.40;;;;;;4594749;57;21520;-30
2022/08/01 06:16:06;;;;;;;6.93;5.75;;;28.10;49.40;;;;;;4657530;57;21106;-31
2022/08/01 06:21:07;;;;;;;7.12;5.90;;;28.20;50.10;;;;;;4820713;57;21033;-29
2022/08/01 06:26:08;;;;;;;8.38;6.22;;;28.30;49.90;;;;;;4639730;57;21038;-29
2022/08/01 06:31:11;;;;;;;8.23;7.18;;;28.40;49.80;;;;;;4577711;57;21097;-30
2022/08/01 06:36:12;;;;;;;9.50;7.50;;;28.30;49.50;;;;;;4590418;57;21548;-29
2022/08/01 06:41:12;;;;;;;10.20;7.35;;;28.10;50.20;;;;;;4562330;57;21041;-29
2022/08/01 06:46:13;;;;;;;13.18;11.07;;;28.30;49.80;;;;;;4561878;57;21045;-30
2022/08/01 06:51:17;;;;;;;27.40;19.58;;;28.40;49.70;;;;;;4562261;61;21563;-30
2022/08/01 06:56:18;;;;;;;27.62;21.42;;;28.40;48.70;;;;;;4562511;61;21560;-29
2022/08/01 07:01:19;;;;;;;29.30;23.80;;;28.20;49.00;;;;;;4562301;61;21089;-30
2022/08/01 07:06:20;;;;;;;30.58;22.87;;;28.30;48.20;;;;;;4558860;61;21074;-28
2022/08/01 07:11:22;;;;;;;30.48;21.35;;;28.40;48.40;;;;;;4625021;57;21101;-26
2022/08/01 07:16:23;;;;;;;23.20;19.05;;;28.40;47.40;;;;;;4561828;61;21058;-28
2022/08/01 07:21:24;;;;;;;23.52;17.75;;;28.30;47.80;;;;;;4576771;57;21070;-28
2022/08/01 07:26:24;;;;;;;19.42;16.35;;;28.40;48.20;;;;;;4808956;57;21098;-28
2022/08/01 07:31:25;;;;;;;17.02;15.18;;;28.60;47.30;;;;;;4653144;57;21227;-25
2022/08/01 07:36:26;;;;;;;19.33;15.63;;;28.60;47.30;;;;;;4791945;57;21034;-30
2022/08/01 07:41:27;;;;;;;23.87;18.05;;;28.50;47.50;;;;;;4561911;61;21034;-28
2022/08/01 07:46:30;;;;;;;25.80;18.20;;;28.50;45.00;;;;;;4561565;57;21083;-28
2022/08/01 07:51:30;;;;;;;29.60;20.12;;;28.60;45.40;;;;;;4546701;57;59446;-29
2022/08/01 07:56:31;;;;;;;22.92;17.70;;;28.30;45.70;;;;;;4593000;56;21172;-27
2022/08/01 08:01:32;;;;;;;21.87;18.33;;;27.50;46.50;;;;;;4663793;56;25383;-26
2022/08/01 08:06:33;;;;;;;21.80;17.40;;;27.10;46.70;;;;;;4709804;56;26067;-28
2022/08/01 08:11:34;;;;;;;21.60;17.60;;;26.90;46.90;;;;;;4641715;57;25298;-26
2022/08/01 08:16:34;;;;;;;25.98;18.60;;;27.30;45.80;;;;;;4626142;57;24251;-28
2022/08/01 08:21:36;;;;;;;23.20;17.35;;;27.30;45.90;;;;;;4824040;56;23340;-31
2022/08/01 08:26:37;;;;;;;21.77;16.77;;;27.20;45.80;;;;;;4616504;57;25822;-29
2022/08/01 08:31:38;;;;;;;28.52;19.48;;;27.10;45.90;;;;;;4720331;56;21614;-28
2022/08/01 08:36:39;;;;;;;29.77;21.95;;;27.00;45.90;;;;;;4719512;56;21066;-28
2022/08/01 08:41:40;;;;;;;38.30;23.48;;;27.00;47.10;;;;;;4759857;56;21144;-27
2022/08/01 08:46:43;;;;;;;32.47;24.10;;;27.00;46.70;;;;;;4622198;57;21041;-27
2022/08/01 08:51:48;;;;;;;31.33;23.87;;;27.00;46.40;;;;;;4622600;56;21692;-30
2022/08/01 08:56:51;;;;;;;31.58;24.87;;;26.90;46.10;;;;;;4623486;56;21503;-29
2022/08/01 09:01:52;;;;;;;30.62;25.10;;;26.90;46.00;;;;;;4624927;60;21008;-29
2022/08/01 09:06:54;;;;;;;30.83;22.45;;;26.80;45.80;;;;;;4723770;56;22708;-25
2022/08/01 09:11:55;;;;;;;31.40;23.90;;;26.80;45.80;;;;;;4621040;57;27000;-30
2022/08/01 09:17:08;;;;;;;32.40;23.27;;;26.70;45.80;;;;;;4574129;56;22519;-27
2022/08/01 09:22:11;;;;;;;30.67;24.10;;;26.70;45.90;;;;;;4579229;57;21478;-27
2022/08/01 09:27:18;;;;;;;28.73;22.65;;;26.60;45.60;;;;;;4601108;57;21031;-24
2022/08/01 09:32:19;;;;;;;;;;;26.60;45.70;;;;;;4612839;57;21458;-29
2022/08/01 09:37:30;;;;;;;28.70;20.88;;;26.60;45.70;;;;;;4607906;57;20235;-29
2022/08/01 09:42:31;;;;;;;25.80;20.15;;;26.60;45.80;;;;;;4562157;61;21040;-27
2022/08/01 09:47:39;;;;;;;26.20;19.67;;;26.50;46.00;;;;;;4586997;56;30889;-30
2022/08/01 09:52:40;;;;;;;24.77;18.75;;;26.40;46.80;;;;;;4689283;56;24236;-28
2022/08/01 09:57:55;;;;;;;26.50;18.67;;;26.60;47.10;;;;;;4703568;56;21035;-24
2022/08/01 10:02:55;;;;;;;26.95;21.33;;;26.60;46.80;;;;;;4646831;56;21134;-30
2022/08/01 10:08:04;;;;;;;31.33;24.40;;;26.60;46.60;;;;;;4664530;56;21021;-28
2022/08/01 10:13:06;;;;;;;33.65;26.17;;;26.60;46.00;;;;;;4612848;60;21502;-31
2022/08/01 10:18:08;;;;;;;37.22;30.00;;;26.60;46.40;;;;;;4658246;56;21091;-25
2022/08/01 10:23:10;;;;;;;33.65;27.70;;;26.60;46.30;;;;;;4666705;56;21102;-27
2022/08/01 10:28:16;;;;;;;35.83;28.23;;;26.60;46.10;;;;;;4779459;56;21019;-24
2022/08/01 10:33:18;;;;;;;35.72;28.38;;;26.60;46.00;;;;;;4953206;56;29683;-31
2022/08/01 10:38:19;;;;;;;31.20;24.27;;;26.60;45.80;;;;;;4708433;56;21355;-28
2022/08/01 10:43:20;;;;;;;31.83;24.50;;;26.60;45.70;;;;;;4706285;56;21495;-29
2022/08/01 10:48:50;;;;;;;35.83;27.17;;;26.60;45.90;;;;;;4704063;56;21028;-28
2022/08/01 10:53:53;;;;;;;33.30;27.13;;;26.60;45.40;;;;;;4613179;60;21072;-31
2022/08/01 10:59:03;;;;;;;36.63;28.10;;;26.50;45.00;;;;;;4652264;56;21562;-31
2022/08/01 11:04:10;;;;;;;28.65;24.42;;;26.50;44.60;;;;;;4612865;56;21045;-29
2022/08/01 11:09:30;;;;;;;27.17;23.12;;;26.40;44.30;;;;;;4636602;56;21112;-31
2022/08/01 11:14:32;;;;;;;26.92;21.48;;;26.30;44.20;;;;;;4651776;56;21546;-30
2022/08/01 11:20:08;;;;;;;25.15;21.67;;;26.30;44.10;;;;;;4614287;58;21474;-33
2022/08/01 11:25:09;;;;;;;27.67;23.50;;;26.30;43.90;;;;;;4614331;60;21045;-32
2022/08/01 11:30:30;;;;;;;27.62;23.35;;;26.30;43.70;;;;;;4627521;56;21555;-29
2022/08/01 11:35:31;;;;;;;26.60;21.77;;;26.20;43.70;;;;;;4702495;56;21005;-30
2022/08/01 11:40:32;;;;;;;30.42;21.02;;;26.20;43.70;;;;;;4688059;56;21097;-29
2022/08/01 11:45:55;;;;;;;23.85;19.90;;;26.20;44.00;;;;;;4582889;55;28289;-30
2022/08/01 11:50:57;;;;;;;24.30;17.67;;;26.20;44.30;;;;;;4842392;56;21503;-28
2022/08/01 11:55:58;;;;;;;22.37;16.45;;;26.20;44.70;;;;;;4615142;56;21093;-30
2022/08/01 12:00:59;;;;;;;20.48;16.15;;;26.20;44.70;;;;;;4662330;56;21535;-27
2022/08/01 12:06:01;;;;;;;19.50;14.48;;;26.20;44.80;;;;;;4886223;54;42066;-27
2022/08/01 12:11:04;;;;;;;17.75;14.00;;;26.30;44.90;;;;;;4659049;56;21507;-29
2022/08/01 12:16:10;;;;;;;17.23;13.05;;;26.30;45.70;;;;;;4665813;56;21607;-29
2022/08/01 12:21:10;;;;;;;17.02;12.93;;;26.30;45.20;;;;;;4675896;56;21033;-28
2022/08/01 12:26:11;;;;;;;16.10;12.70;;;26.30;45.30;;;;;;4614020;60;21034;-28
2022/08/01 12:31:12;;;;;;;14.85;12.30;;;26.30;45.20;;;;;;4696732;56;21032;-26
2022/08/01 12:36:26;;;;;;;15.40;12.27;;;26.20;44.50;;;;;;4700061;56;21016;-30
2022/08/01 12:41:27;;;;;;;15.52;11.85;;;26.20;44.80;;;;;;4653910;56;21138;-28
2022/08/01 12:46:28;;;;;;;14.05;12.25;;;26.10;44.80;;;;;;4612153;60;21096;-27
2022/08/01 12:51:29;;;;;;;14.85;12.75;;;26.50;45.10;;;;;;4629881;56;21120;-28
2022/08/01 12:56:33;;;;;;;16.55;11.98;;;26.80;44.80;;;;;;4620409;56;21499;-25
2022/08/01 13:01:35;;;;;;;15.02;12.43;;;27.10;44.40;;;;;;4746184;56;21473;-24
2022/08/01 13:06:36;;;;;;;18.00;13.65;;;27.30;44.60;;;;;;4644910;56;21495;-29
2022/08/01 13:11:37;;;;;;;18.62;14.90;;;27.00;44.20;;;;;;4614882;60;21061;-27
2022/08/01 13:16:47;;;;;;;17.33;14.52;;;26.70;45.20;;;;;;5072912;56;21085;-30
2022/08/01 13:21:56;;;;;;;16.87;13.68;;;26.60;45.40;;;;;;4615247;60;21085;-30
2022/08/01 13:27:00;;;;;;;14.87;12.13;;;26.50;45.30;;;;;;4614680;56;21032;-28
2022/08/01 13:32:22;;;;;;;14.68;12.37;;;26.50;45.30;;;;;;4827889;56;21021;-26
2022/08/01 13:37:23;;;;;;;22.70;13.50;;;26.40;46.00;;;;;;4714355;56;21499;-29
2022/08/01 13:42:24;;;;;;;32.95;15.32;;;26.40;48.30;;;;;;4670107;56;21008;-26
2022/08/01 13:47:25;;;;;;;44.22;16.48;;;26.50;47.90;;;;;;4614018;60;21097;-28
2022/08/01 13:52:26;;;;;;;28.50;15.25;;;26.40;49.30;;;;;;4709832;56;21546;-29
2022/08/01 13:57:27;;;;;;;22.95;18.12;;;26.40;48.90;;;;;;4696944;56;21025;-31
2022/08/01 14:02:28;;;;;;;30.42;20.67;;;26.40;47.40;;;;;;4827422;56;21013;-25
2022/08/01 14:07:29;;;;;;;27.35;20.70;;;26.30;46.60;;;;;;4723648;56;21080;-26
2022/08/01 14:12:30;;;;;;;22.45;18.90;;;26.30;46.30;;;;;;4615381;57;21021;-27
2022/08/01 14:17:32;;;;;;;26.17;18.85;;;26.30;46.20;;;;;;4636308;56;21542;-30
2022/08/01 14:22:33;;;;;;;21.50;18.12;;;26.20;46.10;;;;;;4672589;56;21483;-29
2022/08/01 14:27:35;;;;;;;21.58;16.55;;;26.20;46.10;;;;;;4640040;56;21084;-32
2022/08/01 14:32:37;;;;;;;21.58;16.23;;;26.60;47.40;;;;;;4640516;56;21460;-32
2022/08/01 14:37:38;;;;;;;17.67;15.63;;;26.90;47.00;;;;;;4908887;56;21503;-29
2022/08/01 14:42:39;;;;;;;21.62;16.62;;;27.10;46.90;;;;;;4633598;56;21021;-34
2022/08/01 14:47:41;;;;;;;21.87;15.35;;;27.20;47.00;;;;;;4706214;56;21519;-33
2022/08/01 14:52:42;;;;;;;18.58;15.45;;;27.30;47.00;;;;;;4780118;56;21076;-30
2022/08/01 14:57:43;;;;;;;22.10;16.67;;;27.40;47.20;;;;;;4675153;56;21041;-32
2022/08/01 15:02:44;;;;;;;18.62;15.63;;;27.50;47.30;;;;;;4807021;56;21064;-31
2022/08/01 15:07:45;;;;;;;18.40;16.23;;;27.50;47.30;;;;;;4781632;56;21032;-32
2022/08/01 15:12:46;;;;;;;17.00;15.05;;;27.50;47.30;;;;;;4839955;56;21463;-32
2022/08/01 15:17:47;;;;;;;18.77;15.50;;;27.70;47.50;;;;;;4680535;56;21052;-30
2022/08/01 15:22:48;;;;;;;18.23;15.15;;;27.70;47.60;;;;;;4614682;60;21073;-32
2022/08/01 15:27:49;;;;;;;17.73;14.87;;;27.70;47.40;;;;;;4760962;56;21507;-34
2022/08/01 15:32:49;;;;;;;17.40;15.30;;;27.70;47.50;;;;;;4707597;56;21045;-32
2022/08/01 15:37:50;;;;;;;18.83;16.30;;;27.80;47.60;;;;;;4705046;56;21097;-29
2022/08/01 15:42:52;;;;;;;15.65;14.02;;;27.80;47.50;;;;;;4622113;56;21038;-31
2022/08/01 15:47:52;;;;;;;17.40;15.25;;;27.80;47.50;;;;;;4917083;56;21538;-29
2022/08/01 15:52:53;;;;;;;16.83;15.02;;;27.80;47.00;;;;;;4672099;56;21013;-30
2022/08/01 15:57:54;;;;;;;17.48;15.32;;;27.90;47.70;;;;;;4793603;56;21065;-32
2022/08/01 16:02:55;;;;;;;15.88;14.27;;;27.90;47.60;;;;;;4653138;56;21009;-33
2022/08/01 16:07:56;;;;;;;16.67;15.02;;;27.90;47.60;;;;;;4994841;56;21661;-30
2022/08/01 16:12:57;;;;;;;16.95;14.43;;;27.90;47.60;;;;;;4802820;56;21021;-30
2022/08/01 16:17:58;;;;;;;15.70;14.07;;;28.00;47.80;;;;;;4615372;60;21029;-29
2022/08/01 16:22:59;;;;;;;16.08;13.95;;;27.90;47.80;;;;;;4922536;56;21040;-30
2022/08/01 16:28:00;;;;;;;16.02;14.32;;;28.00;47.80;;;;;;4646060;56;21044;-33
2022/08/01 16:33:01;;;;;;;16.05;14.35;;;28.00;47.90;;;;;;4980231;56;21053;-32
2022/08/01 16:38:03;;;;;;;15.25;13.75;;;28.00;47.90;;;;;;4642495;56;21009;-30
2022/08/01 16:43:04;;;;;;;14.68;13.27;;;28.00;47.90;;;;;;4615400;60;21070;-35
2022/08/01 16:48:05;;;;;;;15.38;13.77;;;28.00;47.90;;;;;;4760128;56;21042;-33
2022/08/01 16:53:06;;;;;;;15.98;14.35;;;28.00;48.00;;;;;;4615213;57;21025;-34
2022/08/01 16:58:07;;;;;;;15.85;13.05;;;28.10;48.00;;;;;;4788358;56;21013;-32
2022/08/01 17:03:10;;;;;;;14.43;13.00;;;28.10;48.00;;;;;;5072525;56;21009;-31
2022/08/01 17:08:11;;;;;;;16.00;13.57;;;28.10;48.00;;;;;;4791042;56;21013;-33
2022/08/01 17:13:11;;;;;;;15.63;14.02;;;28.10;48.10;;;;;;4870348;56;21093;-30
2022/08/01 17:18:12;;;;;;;14.85;13.25;;;28.10;48.80;;;;;;4743250;56;21056;-31
2022/08/01 17:23:13;;;;;;;14.45;12.85;;;28.10;48.10;;;;;;4615142;56;21518;-30
2022/08/01 17:28:14;;;;;;;15.77;13.43;;;28.10;48.20;;;;;;4960180;56;21013;-29
2022/08/01 17:33:15;;;;;;;15.50;13.82;;;28.10;48.60;;;;;;4668801;56;21013;-30
2022/08/01 17:38:16;;;;;;;14.30;12.88;;;28.10;48.10;;;;;;4615191;60;21080;-31
2022/08/01 17:43:17;;;;;;;14.52;13.07;;;28.10;48.20;;;;;;4674619;56;21530;-36
2022/08/01 17:48:18;;;;;;;14.48;13.00;;;28.10;48.20;;;;;;4614954;60;21543;-29
2022/08/01 17:53:20;;;;;;;15.15;13.60;;;28.10;48.20;;;;;;4615197;60;21080;-32
2022/08/01 17:58:21;;;;;;;14.82;13.35;;;28.10;48.20;;;;;;4635449;56;21535;-33
2022/08/01 18:03:21;;;;;;;14.55;13.15;;;28.10;48.30;;;;;;4615204;57;21017;-35
2022/08/01 18:08:22;;;;;;;15.10;13.50;;;28.10;48.20;;;;;;4836879;56;21029;-35
2022/08/01 18:13:23;;;;;;;14.60;13.20;;;28.10;48.20;;;;;;4614679;60;21053;-30
2022/08/01 18:18:26;;;;;;;14.18;12.68;;;28.10;48.30;;;;;;4872517;56;21137;-31
2022/08/01 18:23:27;;;;;;;13.57;12.30;;;28.10;48.30;;;;;;4617892;56;21514;-34
2022/08/01 18:28:28;;;;;;;13.90;12.52;;;28.20;48.40;;;;;;4771410;56;21037;-31
2022/08/01 18:33:29;;;;;;;14.20;12.80;;;28.10;48.30;;;;;;4615053;60;21097;-36
2022/08/01 18:38:33;;;;;;;14.57;13.07;;;28.10;48.30;;;;;;4890075;56;21106;-30
2022/08/01 18:43:35;;;;;;;14.23;12.90;;;28.20;48.40;;;;;;4614545;60;21475;-30
2022/08/01 18:48:36;;;;;;;13.70;12.30;;;28.10;48.50;;;;;;4717106;56;21507;-29
2022/08/01 18:53:38;;;;;;;14.57;13.18;;;28.20;48.60;;;;;;4864087;56;21013;-32
2022/08/01 18:58:43;;;;;;;14.30;12.90;;;28.20;48.60;;;;;;4738679;56;21487;-32
2022/08/01 19:03:44;;;;;;;14.38;12.98;;;28.20;48.60;;;;;;4620187;56;21061;-34
2022/08/01 19:08:44;;;;;;;14.02;12.65;;;28.20;48.60;;;;;;4617700;56;21029;-35
2022/08/01 19:13:45;;;;;;;14.52;13.02;;;28.20;48.70;;;;;;4942495;56;21628;-31
2022/08/01 19:18:46;;;;;;;14.23;12.73;;;28.20;48.80;;;;;;4773630;56;21028;-30
2022/08/01 19:29:11;;;;;;;14.70;13.20;;;28.20;49.00;;;;;;4614644;56;21044;-32
2022/08/01 19:34:14;;;;;;;14.43;13.02;;;28.20;48.90;;;;;;4691847;56;21057;-33
2022/08/01 19:39:20;;;;;;;14.27;12.88;;;28.20;49.00;;;;;;4615174;60;21514;-32
2022/08/01 19:44:23;;;;;;;14.85;13.18;;;28.20;49.00;;;;;;4705578;56;21615;-31
2022/08/01 19:49:24;;;;;;;14.02;12.63;;;28.20;49.10;;;;;;4959974;56;21113;-30
2022/08/01 19:54:29;;;;;;;13.82;12.45;;;28.20;49.20;;;;;;4683911;56;21009;-31
2022/08/01 19:59:32;;;;;;;13.62;12.23;;;28.20;49.30;;;;;;4645894;56;21528;-30
2022/08/01 20:04:34;;;;;;;13.90;12.50;;;28.20;49.30;;;;;;4899688;56;21029;-32
2022/08/01 20:09:37;;;;;;;14.15;12.65;;;28.20;49.40;;;;;;4812608;56;21455;-33
2022/08/01 20:14:40;;;;;;;14.07;12.77;;;28.20;49.30;;;;;;4785757;56;21037;-30
2022/08/01 20:19:41;;;;;;;14.23;12.82;;;28.20;49.40;;;;;;4646456;56;21072;-30
2022/08/01 20:24:48;;;;;;;14.00;12.63;;;28.20;49.40;;;;;;4703055;56;21085;-32
2022/08/01 20:29:51;;;;;;;12.82;11.52;;;28.20;49.40;;;;;;4618447;56;21578;-30
2022/08/01 20:34:53;;;;;;;12.68;11.48;;;28.20;49.50;;;;;;4615470;56;21041;-31
2022/08/01 20:39:57;;;;;;;13.80;12.37;;;28.20;49.60;;;;;;4761326;56;21498;-28
2022/08/01 20:45:01;;;;;;;12.90;11.60;;;28.20;49.60;;;;;;4890662;56;21004;-30
2022/08/01 20:55:30;;;;;;;13.82;12.43;;;28.20;49.60;;;;;;4614957;56;21044;-30
2022/08/01 21:00:32;;;;;;;12.40;11.20;;;28.20;49.70;;;;;;4705577;56;21041;-30
2022/08/01 21:05:45;;;;;;;12.65;11.45;;;28.20;49.80;;;;;;4615252;60;21104;-31
2022/08/01 21:10:49;;;;;;;12.05;10.85;;;28.20;49.80;;;;;;4625296;56;21005;-33
2022/08/01 21:15:58;;;;;;;12.30;11.00;;;28.20;49.80;;;;;;5073737;56;21053;-29
2022/08/01 21:21:14;;;;;;;11.85;10.60;;;28.20;49.80;;;;;;4704590;56;21064;-31
2022/08/01 21:26:18;;;;;;;11.50;10.40;;;28.20;49.90;;;;;;4779604;56;21080;-30
2022/08/01 21:31:20;;;;;;;11.45;10.27;;;28.20;49.80;;;;;;4648632;56;21073;-31
2022/08/01 21:36:22;;;;;;;13.95;11.05;;;28.20;49.90;;;;;;4666682;56;21092;-31
2022/08/01 21:41:28;;;;;;;11.48;10.38;;;28.20;49.90;;;;;;4702929;56;21024;-32
2022/08/01 21:46:29;;;;;;;11.77;10.57;;;28.20;50.00;;;;;;4806643;56;21021;-35
2022/08/01 21:51:48;;;;;;;12.02;10.82;;;28.20;50.00;;;;;;4768282;56;21534;-32
2022/08/01 21:57:16;;;;;;;11.45;10.35;;;28.20;50.10;;;;;;5073357;56;21595;-30
2022/08/01 22:02:25;;;;;;;11.52;10.43;;;28.10;50.10;;;;;;5073357;56;21009;-31
2022/08/01 22:07:28;;;;;;;11.95;10.75;;;28.20;50.20;;;;;;4758619;56;21029;-31
2022/08/01 22:12:37;;;;;;;10.95;9.85;;;28.20;50.20;;;;;;4704719;56;21065;-30
2022/08/01 22:17:39;;;;;;;11.00;9.90;;;28.20;50.20;;;;;;4635735;56;21121;-31
2022/08/01 22:22:42;;;;;;;11.20;10.10;;;28.20;50.30;;;;;;4722046;56;21028;-34
2022/08/01 22:27:43;;;;;;;10.95;9.77;;;28.20;50.30;;;;;;4671824;56;21036;-34
2022/08/01 22:32:45;;;;;;;10.70;9.63;;;28.20;50.40;;;;;;4681667;56;20993;-34
2022/08/01 22:37:46;;;;;;;12.10;10.85;;;28.20;50.30;;;;;;4615593;56;21120;-31
2022/08/01 22:42:57;;;;;;;11.05;9.90;;;28.20;50.40;;;;;;4615428;60;21024;-31
2022/08/01 22:48:16;;;;;;;10.88;9.82;;;28.20;50.40;;;;;;4969727;56;21100;-30
2022/08/01 22:53:41;;;;;;;10.38;9.48;;;28.20;50.50;;;;;;4615465;60;21137;-32
2022/08/01 22:58:43;;;;;;;10.57;9.57;;;28.20;50.50;;;;;;4652764;56;21619;-31
2022/08/01 23:03:48;;;;;;;10.10;9.10;;;28.20;50.50;;;;;;4726021;56;21032;-31
2022/08/01 23:08:49;;;;;;;11.48;9.70;;;28.20;50.60;;;;;;4739060;56;21077;-32
2022/08/01 23:13:51;;;;;;;10.07;9.07;;;28.20;50.60;;;;;;4615515;56;21125;-32
2022/08/01 23:18:54;;;;;;;10.07;9.07;;;28.20;50.60;;;;;;4841916;56;21029;-32
2022/08/01 23:23:56;;;;;;;10.27;9.25;;;28.20;50.70;;;;;;4685070;56;21013;-32
2022/08/01 23:28:58;;;;;;;9.75;8.85;;;28.20;50.80;;;;;;5073567;56;20994;-34
2022/08/01 23:33:58;;;;;;;9.73;8.77;;;28.20;50.70;;;;;;4615381;60;21021;-31
2022/08/01 23:38:59;;;;;;;10.15;8.98;;;28.20;50.80;;;;;;5073498;56;21057;-32
2022/08/01 23:44:00;;;;;;;10.98;8.85;;;28.20;50.80;;;;;;4706069;56;21045;-33
2022/08/01 23:49:01;;;;;;;9.73;8.82;;;28.20;50.90;;;;;;4796836;56;21069;-31
2022/08/01 23:54:02;;;;;;;9.43;8.52;;;28.20;50.90;;;;;;4615313;60;21065;-32
2022/08/01 23:59:03;;;;;;;9.48;8.57;;;28.20;50.90;;;;;;4615514;57;21009;-33
